createdAt,value
2022-08-01T00:00:52.410Z,78.40
2022-08-01T00:03:22.334Z,78.40
2022-08-01T00:05:51.077Z,78.40
2022-08-01T00:08:19.583Z,78.80
2022-08-01T00:10:48.190Z,79.00
2022-08-01T00:13:16.829Z,79.10
2022-08-01T00:15:53.735Z,79.30
2022-08-01T00:18:24.736Z,79.40
2022-08-01T00:20:53.316Z,79.50
2022-08-01T00:23:21.826Z,79.90
2022-08-01T00:25:50.408Z,79.90
2022-08-01T00:28:18.954Z,79.80
2022-08-01T00:30:47.734Z,79.80
2022-08-01T00:33:16.388Z,79.90
2022-08-01T00:35:46.479Z,80.00
2022-08-01T00:38:15.113Z,80.10
2022-08-01T00:40:43.606Z,80.20
2022-08-01T00:43:12.259Z,80.50
2022-08-01T00:45:40.850Z,80.70
2022-08-01T00:48:09.411Z,80.80
2022-08-01T00:50:38.038Z,81.00
2022-08-01T00:53:08.444Z,81.20
2022-08-01T00:55:37.111Z,81.30
2022-08-01T00:58:06.606Z,81.50
2022-08-01T01:00:53.097Z,81.70
2022-08-01T01:06:19.899Z,81.90
2022-08-01T01:08:56.393Z,82.10
2022-08-01T01:11:28.284Z,82.00
2022-08-01T01:14:00.086Z,82.00
2022-08-01T01:16:29.701Z,82.30
2022-08-01T01:18:59.950Z,82.40
2022-08-01T01:21:37.845Z,82.50
2022-08-01T01:24:13.207Z,82.60
2022-08-01T01:26:46.259Z,82.80
2022-08-01T01:29:18.882Z,82.80
2022-08-01T01:31:50.293Z,82.70
2022-08-01T01:34:20.120Z,82.60
2022-08-01T01:36:49.799Z,82.50
2022-08-01T01:39:19.252Z,82.70
2022-08-01T01:41:48.907Z,82.90
2022-08-01T01:44:19.669Z,83.00
2022-08-01T01:46:49.894Z,83.20
2022-08-01T01:49:18.859Z,83.20
2022-08-01T01:52:00.741Z,83.50
2022-08-01T01:54:32.619Z,83.60
2022-08-01T01:57:02.227Z,83.90
2022-08-01T01:59:34.286Z,84.20
2022-08-01T02:02:06.277Z,84.40
2022-08-01T02:04:37.726Z,84.50
2022-08-01T02:07:08.164Z,84.70
2022-08-01T02:09:37.775Z,84.70
2022-08-01T02:12:09.145Z,84.70
2022-08-01T02:14:41.184Z,85.10
2022-08-01T02:17:11.561Z,85.40
2022-08-01T02:19:40.497Z,85.60
2022-08-01T02:22:12.356Z,85.80
2022-08-01T02:24:44.738Z,85.90
2022-08-01T02:27:15.194Z,85.90
2022-08-01T02:29:46.113Z,86.10
2022-08-01T02:32:16.872Z,86.20
2022-08-01T02:34:48.895Z,86.40
2022-08-01T02:37:18.350Z,86.30
2022-08-01T02:39:50.244Z,86.30
2022-08-01T02:42:20.956Z,86.20
2022-08-01T02:44:51.446Z,86.20
2022-08-01T02:47:22.166Z,86.30
2022-08-01T02:49:53.946Z,86.40
2022-08-01T02:52:23.406Z,86.40
2022-08-01T02:54:54.150Z,86.40
2022-08-01T02:57:23.269Z,87.20
2022-08-01T03:00:00.200Z,86.70
2022-08-01T03:02:29.687Z,86.80
2022-08-01T03:04:59.765Z,86.80
2022-08-01T03:07:34.387Z,86.90
2022-08-01T03:10:04.317Z,87.00
2022-08-01T03:12:35.490Z,87.10
2022-08-01T03:15:07.224Z,87.10
2022-08-01T03:17:39.658Z,87.30
2022-08-01T03:20:10.366Z,87.40
2022-08-01T03:22:39.572Z,87.60
2022-08-01T03:25:08.637Z,88.50
2022-08-01T03:27:38.716Z,87.90
2022-08-01T03:30:09.501Z,87.90
2022-08-01T03:32:38.163Z,88.00
2022-08-01T03:35:07.288Z,88.20
2022-08-01T03:37:54.305Z,88.20
2022-08-01T03:40:30.751Z,88.50
2022-08-01T03:43:02.121Z,88.60
2022-08-01T03:45:35.228Z,88.80
2022-08-01T03:48:05.495Z,89.00
2022-08-01T03:50:54.000Z,89.20
2022-08-01T03:53:24.859Z,89.10
2022-08-01T03:56:12.269Z,89.30
2022-08-01T03:58:42.060Z,89.30
2022-08-01T04:01:31.487Z,89.30
2022-08-01T04:04:00.973Z,89.30
2022-08-01T04:06:29.569Z,89.50
2022-08-01T04:08:58.543Z,89.60
2022-08-01T04:11:27.591Z,89.50
2022-08-01T04:13:56.590Z,89.60
2022-08-01T04:16:26.455Z,89.70
2022-08-01T04:18:56.881Z,89.60
2022-08-01T04:21:28.786Z,89.70
2022-08-01T04:24:00.481Z,89.80
2022-08-01T04:26:30.393Z,90.00
2022-08-01T04:28:59.030Z,90.00
2022-08-01T04:31:30.345Z,90.00
2022-08-01T04:34:03.567Z,90.00
2022-08-01T04:36:32.746Z,90.00
2022-08-01T04:39:02.977Z,90.00
2022-08-01T04:41:32.791Z,89.90
2022-08-01T04:44:01.725Z,89.90
2022-08-01T04:46:30.834Z,89.80
2022-08-01T04:48:59.864Z,89.70
2022-08-01T04:51:30.012Z,89.60
2022-08-01T04:53:59.799Z,89.50
2022-08-01T04:56:28.325Z,89.30
2022-08-01T04:59:13.835Z,89.20
2022-08-01T05:01:50.943Z,89.00
2022-08-01T05:04:19.786Z,88.80
2022-08-01T05:06:49.657Z,88.70
2022-08-01T05:09:18.336Z,88.60
2022-08-01T05:11:46.916Z,88.40
2022-08-01T05:14:15.603Z,88.20
2022-08-01T05:16:44.183Z,88.00
2022-08-01T05:19:12.734Z,87.70
2022-08-01T05:21:41.336Z,87.20
2022-08-01T05:24:11.408Z,86.80
2022-08-01T05:26:40.496Z,86.30
2022-08-01T05:29:09.007Z,85.60
2022-08-01T05:31:37.784Z,85.20
2022-08-01T05:34:06.290Z,85.40
2022-08-01T05:36:43.697Z,84.10
2022-08-01T05:39:13.914Z,83.90
2022-08-01T05:41:42.521Z,83.50
2022-08-01T05:44:11.691Z,83.30
2022-08-01T05:46:40.566Z,83.30
2022-08-01T05:49:09.153Z,82.90
2022-08-01T05:51:37.695Z,82.10
2022-08-01T05:54:06.312Z,81.80
2022-08-01T05:56:36.284Z,81.10
2022-08-01T05:59:05.069Z,80.20
2022-08-01T06:01:33.681Z,79.60
2022-08-01T06:04:02.430Z,79.00
2022-08-01T06:06:30.947Z,78.80
2022-08-01T06:08:59.411Z,78.50
2022-08-01T06:11:27.971Z,78.00
2022-08-01T06:13:57.916Z,77.60
2022-08-01T06:16:26.644Z,77.20
2022-08-01T06:18:56.768Z,76.40
2022-08-01T06:21:25.762Z,76.10
2022-08-01T06:23:54.332Z,75.60
2022-08-01T06:26:23.102Z,75.10
2022-08-01T06:28:52.064Z,75.60
2022-08-01T06:31:22.116Z,74.40
2022-08-01T06:33:50.748Z,73.60
2022-08-01T06:36:19.289Z,72.20
2022-08-01T06:38:48.030Z,71.40
2022-08-01T06:41:16.513Z,71.30
2022-08-01T06:43:45.158Z,71.00
2022-08-01T06:46:13.706Z,71.00
2022-08-01T06:48:43.890Z,70.90
2022-08-01T06:51:15.053Z,71.00
2022-08-01T06:53:43.936Z,71.00
2022-08-01T06:56:32.347Z,70.80
2022-08-01T06:59:02.076Z,70.00
2022-08-01T07:01:31.125Z,69.00
2022-08-01T07:04:05.704Z,67.80
2022-08-01T07:06:34.581Z,67.50
2022-08-01T07:09:08.445Z,67.10
2022-08-01T07:11:39.595Z,67.20
2022-08-01T07:14:08.193Z,67.30
2022-08-01T07:16:37.434Z,67.50
2022-08-01T07:19:07.410Z,68.00
2022-08-01T07:21:40.479Z,68.00
2022-08-01T07:24:13.754Z,67.70
2022-08-01T07:26:54.427Z,67.20
2022-08-01T07:29:24.057Z,66.40
2022-08-01T07:31:52.770Z,65.90
2022-08-01T07:34:41.128Z,65.50
2022-08-01T07:37:09.909Z,65.20
2022-08-01T07:39:38.410Z,64.90
2022-08-01T07:42:08.412Z,64.80
2022-08-01T07:44:37.390Z,64.30
2022-08-01T07:47:06.081Z,63.70
2022-08-01T07:49:39.975Z,63.30
2022-08-01T07:52:11.269Z,62.60
2022-08-01T07:54:40.184Z,62.20
2022-08-01T07:57:08.749Z,61.80
2022-08-01T07:59:37.588Z,61.00
2022-08-01T08:02:06.472Z,60.80
2022-08-01T08:04:35.339Z,60.10
2022-08-01T08:07:04.443Z,59.80
2022-08-01T08:09:37.885Z,59.70
2022-08-01T08:12:08.073Z,59.10
2022-08-01T08:14:37.074Z,59.20
2022-08-01T08:17:05.864Z,58.50
2022-08-01T08:19:37.961Z,58.10
2022-08-01T08:22:08.075Z,57.80
2022-08-01T08:24:46.136Z,57.50
2022-08-01T08:27:15.669Z,57.40
2022-08-01T08:29:45.053Z,57.20
2022-08-01T08:32:13.953Z,57.10
2022-08-01T08:34:42.565Z,56.60
2022-08-01T08:37:12.390Z,56.50
2022-08-01T08:39:42.864Z,56.10
2022-08-01T08:42:12.241Z,56.20
2022-08-01T08:44:43.535Z,55.70
2022-08-01T08:47:19.335Z,55.30
2022-08-01T08:49:49.965Z,55.10
2022-08-01T08:52:20.025Z,54.50
2022-08-01T08:54:50.620Z,54.40
2022-08-01T08:57:21.186Z,53.50
2022-08-01T09:00:10.535Z,53.40
2022-08-01T09:02:42.374Z,52.90
2022-08-01T09:05:15.044Z,52.50
2022-08-01T09:07:47.831Z,52.30
2022-08-01T09:10:17.781Z,52.10
2022-08-01T09:13:12.033Z,51.90
2022-08-01T09:15:41.802Z,51.60
2022-08-01T09:18:10.466Z,51.80
2022-08-01T09:20:39.142Z,51.90
2022-08-01T09:23:07.692Z,52.10
2022-08-01T09:25:51.441Z,52.10
2022-08-01T09:28:29.074Z,52.00
2022-08-01T09:31:17.607Z,51.90
2022-08-01T09:33:52.207Z,52.20
2022-08-01T09:36:21.169Z,52.00
2022-08-01T09:38:50.866Z,50.80
2022-08-01T09:41:20.271Z,49.80
2022-08-01T09:43:52.581Z,49.90
2022-08-01T09:46:22.821Z,50.00
2022-08-01T09:48:58.798Z,50.10
2022-08-01T09:51:57.882Z,50.30
2022-08-01T09:54:29.864Z,50.00
2022-08-01T09:57:09.734Z,49.50
2022-08-01T09:59:57.668Z,49.80
2022-08-01T10:02:45.825Z,50.30
2022-08-01T10:05:20.993Z,50.60
2022-08-01T10:08:00.867Z,50.80
2022-08-01T10:10:31.435Z,50.40
2022-08-01T10:13:01.238Z,49.70
2022-08-01T10:15:36.498Z,49.70
2022-08-01T10:18:16.597Z,49.80
2022-08-01T10:20:56.457Z,49.50
2022-08-01T10:23:40.095Z,49.10
2022-08-01T10:26:10.158Z,48.80
2022-08-01T10:28:39.433Z,48.80
2022-08-01T10:31:13.244Z,48.90
2022-08-01T10:33:52.745Z,48.50
2022-08-01T10:36:22.889Z,47.90
2022-08-01T10:38:55.068Z,48.10
2022-08-01T10:41:24.133Z,48.40
2022-08-01T10:43:54.086Z,48.00
2022-08-01T10:46:25.428Z,47.90
2022-08-01T10:49:14.408Z,47.40
2022-08-01T10:51:52.255Z,47.20
2022-08-01T10:54:26.470Z,47.20
2022-08-01T10:57:02.171Z,46.90
2022-08-01T10:59:49.705Z,46.60
2022-08-01T11:02:32.334Z,46.20
2022-08-01T11:05:23.842Z,46.10
2022-08-01T11:07:55.109Z,46.20
2022-08-01T11:10:27.134Z,46.10
2022-08-01T11:12:55.810Z,46.20
2022-08-01T11:15:31.235Z,46.30
2022-08-01T11:18:02.312Z,46.40
2022-08-01T11:20:36.014Z,46.50
2022-08-01T11:23:21.662Z,46.40
2022-08-01T11:26:11.696Z,46.60
2022-08-01T11:29:20.931Z,45.60
2022-08-01T11:31:51.429Z,45.20
2022-08-01T11:34:21.854Z,45.70
2022-08-01T11:36:59.672Z,45.70
2022-08-01T11:39:29.414Z,45.70
2022-08-01T11:42:18.480Z,44.80
2022-08-01T11:44:53.595Z,44.60
2022-08-01T11:47:37.279Z,44.50
2022-08-01T11:50:07.982Z,43.90
2022-08-01T11:52:37.396Z,43.90
2022-08-01T11:55:10.222Z,44.30
2022-08-01T11:57:40.924Z,44.20
2022-08-01T12:00:15.332Z,44.40
2022-08-01T12:03:05.076Z,44.80
2022-08-01T12:05:43.230Z,43.80
2022-08-01T12:08:12.276Z,43.60
2022-08-01T12:10:47.204Z,43.10
2022-08-01T12:13:21.246Z,43.10
2022-08-01T12:15:56.520Z,43.30
2022-08-01T12:18:25.624Z,43.60
2022-08-01T12:21:04.521Z,43.40
2022-08-01T12:23:33.400Z,43.30
2022-08-01T12:26:02.808Z,43.40
2022-08-01T12:28:31.638Z,43.60
2022-08-01T12:31:00.669Z,43.80
2022-08-01T12:33:29.427Z,44.00
2022-08-01T12:35:59.497Z,44.20
2022-08-01T12:38:29.160Z,44.40
2022-08-01T12:40:58.192Z,43.90
2022-08-01T12:43:29.213Z,43.70
2022-08-01T12:46:00.418Z,43.30
2022-08-01T12:48:29.809Z,43.40
2022-08-01T12:51:02.400Z,43.50
2022-08-01T12:53:50.366Z,43.70
2022-08-01T12:56:19.962Z,43.20
2022-08-01T12:58:48.583Z,42.80
2022-08-01T13:01:17.477Z,42.70
2022-08-01T13:03:59.745Z,42.50
2022-08-01T13:06:31.622Z,43.00
2022-08-01T13:09:07.297Z,42.80
2022-08-01T13:11:36.207Z,42.30
2022-08-01T13:14:04.914Z,42.00
2022-08-01T13:16:55.500Z,41.90
2022-08-01T13:19:22.522Z,42.20
2022-08-01T13:21:59.911Z,42.70
2022-08-01T13:24:29.317Z,42.90
2022-08-01T13:26:59.995Z,43.90
2022-08-01T13:29:32.971Z,43.30
2022-08-01T13:32:01.837Z,44.00
2022-08-01T13:34:33.710Z,43.50
2022-08-01T13:37:04.374Z,43.50
2022-08-01T13:39:43.234Z,43.70
2022-08-01T13:42:12.689Z,43.80
2022-08-01T13:44:48.155Z,44.00
2022-08-01T13:47:17.146Z,44.20
2022-08-01T13:49:46.182Z,44.30
2022-08-01T13:52:16.428Z,44.50
2022-08-01T13:54:45.257Z,44.80
2022-08-01T13:57:15.518Z,45.00
2022-08-01T13:59:44.301Z,45.30
2022-08-01T14:02:12.964Z,45.70
2022-08-01T14:04:41.724Z,45.70
2022-08-01T14:07:14.556Z,45.60
2022-08-01T14:10:18.133Z,45.40
2022-08-01T14:12:49.356Z,45.20
2022-08-01T14:15:37.898Z,45.20
2022-08-01T14:18:07.183Z,45.30
2022-08-01T14:20:36.455Z,45.60
2022-08-01T14:23:06.344Z,45.60
2022-08-01T14:26:02.553Z,45.70
2022-08-01T14:28:29.433Z,45.80
2022-08-01T14:30:58.370Z,45.90
2022-08-01T14:33:27.365Z,46.00
2022-08-01T14:36:06.312Z,46.10
2022-08-01T14:39:03.497Z,46.30
2022-08-01T14:41:34.875Z,46.00
2022-08-01T14:44:05.326Z,46.00
2022-08-01T14:46:34.237Z,46.20
2022-08-01T14:49:02.922Z,46.60
2022-08-01T14:51:34.375Z,46.50
2022-08-01T14:54:03.085Z,46.40
2022-08-01T14:56:32.811Z,46.60
2022-08-01T14:59:02.898Z,46.50
2022-08-01T15:01:32.299Z,46.80
2022-08-01T15:04:01.014Z,46.50
2022-08-01T15:06:33.161Z,46.50
2022-08-01T15:09:01.758Z,46.80
2022-08-01T15:11:37.122Z,46.30
2022-08-01T15:14:24.178Z,46.10
2022-08-01T15:16:52.975Z,46.10
2022-08-01T15:19:21.619Z,46.30
2022-08-01T15:21:50.316Z,46.40
2022-08-01T15:24:19.003Z,46.40
2022-08-01T15:26:47.642Z,46.60
2022-08-01T15:29:17.901Z,46.50
2022-08-01T15:31:46.559Z,46.50
2022-08-01T15:34:15.328Z,46.70
2022-08-01T15:36:44.816Z,46.70
2022-08-01T15:39:17.509Z,46.80
2022-08-01T15:41:46.116Z,46.60
2022-08-01T15:44:14.991Z,46.60
2022-08-01T15:46:44.901Z,46.70
2022-08-01T15:49:13.581Z,47.10
2022-08-01T15:51:42.074Z,46.80
2022-08-01T15:54:14.605Z,46.70
2022-08-01T15:56:43.846Z,46.60
2022-08-01T15:59:12.346Z,46.40
2022-08-01T16:01:41.041Z,46.30
2022-08-01T16:04:11.137Z,46.20
2022-08-01T16:06:39.810Z,46.00
2022-08-01T16:09:08.496Z,45.70
2022-08-01T16:12:05.766Z,45.70
2022-08-01T16:14:34.575Z,45.40
2022-08-01T16:17:03.027Z,45.00
2022-08-01T16:19:33.048Z,45.00
2022-08-01T16:22:01.643Z,45.20
2022-08-01T16:24:31.259Z,45.30
2022-08-01T16:27:00.078Z,45.20
2022-08-01T16:29:30.893Z,45.20
2022-08-01T16:32:02.197Z,45.40
2022-08-01T16:34:33.315Z,45.30
2022-08-01T16:37:04.147Z,45.30
2022-08-01T16:39:36.279Z,45.40
2022-08-01T16:42:04.895Z,45.20
2022-08-01T16:44:34.560Z,45.40
2022-08-01T16:47:03.762Z,45.80
2022-08-01T16:49:34.202Z,45.90
2022-08-01T16:52:02.843Z,46.00
2022-08-01T16:54:31.415Z,45.90
2022-08-01T16:57:08.767Z,46.00
2022-08-01T16:59:41.623Z,46.00
2022-08-01T17:02:11.549Z,46.00
2022-08-01T17:04:41.722Z,46.00
2022-08-01T17:07:10.664Z,46.30
2022-08-01T17:09:43.384Z,46.50
2022-08-01T17:12:14.431Z,46.60
2022-08-01T17:14:51.302Z,46.80
2022-08-01T17:17:20.097Z,46.70
2022-08-01T17:19:50.308Z,46.70
2022-08-01T17:22:19.087Z,46.70
2022-08-01T17:24:47.741Z,46.90
2022-08-01T17:27:16.810Z,47.10
2022-08-01T17:29:45.742Z,47.50
2022-08-01T17:32:14.721Z,47.50
2022-08-01T17:34:43.763Z,47.60
2022-08-01T17:37:13.795Z,47.70
2022-08-01T17:39:42.472Z,47.90
2022-08-01T17:42:11.176Z,48.00
2022-08-01T17:44:41.695Z,48.10
2022-08-01T17:47:24.192Z,48.20
2022-08-01T17:50:04.479Z,48.30
2022-08-01T17:52:35.218Z,48.50
2022-08-01T17:55:03.857Z,48.40
2022-08-01T17:57:32.500Z,49.00
2022-08-01T18:00:01.221Z,48.40
2022-08-01T18:02:29.764Z,48.50
2022-08-01T18:04:59.306Z,48.60
2022-08-01T18:08:00.520Z,48.50
2022-08-01T18:10:18.279Z,48.60
2022-08-01T18:12:48.883Z,49.00
2022-08-01T18:15:17.430Z,49.10
2022-08-01T18:17:50.043Z,49.20
2022-08-01T18:20:18.604Z,49.40
2022-08-01T18:22:47.319Z,49.50
2022-08-01T18:25:15.997Z,49.30
2022-08-01T18:28:16.711Z,49.50
2022-08-01T18:30:35.164Z,49.50
2022-08-01T18:33:03.916Z,49.30
2022-08-01T18:35:52.153Z,49.50
2022-08-01T18:38:24.082Z,49.50
2022-08-01T18:40:52.929Z,49.50
2022-08-01T18:43:22.907Z,49.60
2022-08-01T18:45:51.821Z,49.80
2022-08-01T18:48:20.558Z,50.60
2022-08-01T18:50:49.147Z,50.20
2022-08-01T18:53:18.931Z,50.20
2022-08-01T18:55:47.549Z,50.40
2022-08-01T18:58:16.078Z,50.50
2022-08-01T19:00:46.121Z,50.50
2022-08-01T19:03:15.663Z,50.80
2022-08-01T19:05:44.342Z,51.00
2022-08-01T19:08:12.951Z,51.40
2022-08-01T19:10:41.609Z,51.60
2022-08-01T19:13:10.325Z,51.80
2022-08-01T19:15:39.355Z,52.50
2022-08-01T19:18:10.807Z,52.00
2022-08-01T19:20:42.768Z,52.20
2022-08-01T19:23:25.087Z,52.20
2022-08-01T19:25:56.453Z,52.00
2022-08-01T19:28:26.084Z,52.20
2022-08-01T19:30:55.274Z,52.10
2022-08-01T19:33:25.343Z,52.30
2022-08-01T19:35:54.436Z,52.40
2022-08-01T19:38:23.277Z,52.40
2022-08-01T19:40:51.859Z,52.40
2022-08-01T19:43:22.703Z,52.40
2022-08-01T19:45:51.447Z,52.50
2022-08-01T19:48:20.108Z,52.70
2022-08-01T19:50:50.257Z,52.90
2022-08-01T19:53:19.489Z,53.10
2022-08-01T19:55:48.575Z,53.30
2022-08-01T19:58:26.856Z,53.50
2022-08-01T20:00:55.994Z,53.50
2022-08-01T20:03:24.651Z,53.70
2022-08-01T20:05:54.813Z,53.90
2022-08-01T20:08:23.464Z,54.00
2022-08-01T20:10:52.255Z,54.20
2022-08-01T20:13:21.218Z,54.30
2022-08-01T20:15:50.064Z,54.40
2022-08-01T20:18:18.707Z,54.60
2022-08-01T20:20:47.487Z,54.60
2022-08-01T20:23:18.738Z,54.60
2022-08-01T20:25:49.629Z,54.80
2022-08-01T20:28:18.669Z,54.90
2022-08-01T20:30:47.974Z,55.10
2022-08-01T20:33:35.519Z,55.20
2022-08-01T20:36:05.515Z,55.30
2022-08-01T20:39:00.661Z,55.30
2022-08-01T20:41:29.656Z,55.40
2022-08-01T20:43:59.691Z,55.70
2022-08-01T20:46:29.986Z,55.80
2022-08-01T20:48:59.506Z,56.00
2022-08-01T20:51:27.385Z,56.00
2022-08-01T20:53:56.800Z,56.20
2022-08-01T20:56:37.576Z,56.20
2022-08-01T20:59:07.747Z,56.40
2022-08-01T21:01:40.377Z,56.50
2022-08-01T21:04:19.581Z,56.60
2022-08-01T21:06:51.614Z,56.70
2022-08-01T21:09:23.094Z,56.80
2022-08-01T21:11:58.554Z,56.90
2022-08-01T21:14:32.736Z,57.00
2022-08-01T21:17:05.068Z,57.10
2022-08-01T21:19:35.848Z,57.10
2022-08-01T21:22:10.103Z,57.20
2022-08-01T21:25:02.775Z,57.20
2022-08-01T21:27:34.110Z,57.30
2022-08-01T21:30:04.247Z,57.30
2022-08-01T21:32:34.227Z,57.30
2022-08-01T21:35:03.990Z,57.30
2022-08-01T21:37:32.718Z,57.40
2022-08-01T21:40:09.589Z,57.40
2022-08-01T21:43:01.008Z,57.50
2022-08-01T21:45:30.181Z,57.70
2022-08-01T21:47:59.504Z,57.80
2022-08-01T21:50:50.247Z,57.90
2022-08-01T21:53:32.142Z,58.10
2022-08-01T21:56:05.310Z,58.20
2022-08-01T21:58:47.804Z,58.20
2022-08-01T22:01:19.566Z,58.30
2022-08-01T22:03:49.077Z,58.50
2022-08-01T22:06:20.266Z,58.70
2022-08-01T22:08:51.558Z,58.90
2022-08-01T22:11:21.149Z,59.10
2022-08-01T22:13:53.693Z,59.30
2022-08-01T22:16:22.823Z,59.50
2022-08-01T22:18:52.160Z,59.80
2022-08-01T22:21:21.064Z,59.70
2022-08-01T22:23:51.894Z,59.90
2022-08-01T22:26:27.121Z,60.00
2022-08-01T22:29:00.035Z,60.20
2022-08-01T22:31:29.174Z,60.40
2022-08-01T22:33:57.614Z,60.60
2022-08-01T22:36:26.152Z,60.70
2022-08-01T22:38:54.741Z,60.90
2022-08-01T22:41:26.569Z,61.00
2022-08-01T22:43:57.935Z,61.20
2022-08-01T22:46:30.412Z,61.40
2022-08-01T22:49:02.068Z,61.50
2022-08-01T22:51:55.556Z,61.50
2022-08-01T22:54:30.103Z,61.60
2022-08-01T22:57:02.723Z,61.50
2022-08-01T22:59:43.444Z,61.70
2022-08-01T23:02:32.761Z,61.80
2022-08-01T23:05:03.597Z,61.90
2022-08-01T23:07:34.043Z,62.10
2022-08-01T23:10:04.257Z,62.40
2022-08-01T23:12:52.081Z,62.70
2022-08-01T23:15:21.157Z,62.90
2022-08-01T23:17:51.433Z,63.10
2022-08-01T23:20:20.211Z,63.50
2022-08-01T23:22:49.349Z,63.70
2022-08-01T23:25:18.020Z,64.00
2022-08-01T23:27:51.660Z,64.20
2022-08-01T23:30:35.139Z,64.40
2022-08-01T23:33:05.357Z,64.70
2022-08-01T23:35:35.643Z,64.80
2022-08-01T23:38:08.089Z,65.10
2022-08-01T23:40:36.570Z,65.20
2022-08-01T23:43:06.009Z,65.40
2022-08-01T23:46:04.429Z,65.50
2022-08-01T23:48:33.612Z,65.70
2022-08-01T23:51:02.540Z,65.80
2022-08-01T23:53:31.430Z,65.90
2022-08-01T23:56:02.473Z,66.00
2022-08-01T23:58:31.842Z,65.90
